createdAt,value
2023-05-10T00:01:18.377Z,14.16
2023-05-10T00:04:21.801Z,14.17
2023-05-10T00:07:24.177Z,14.15
2023-05-10T00:10:27.465Z,14.11
2023-05-10T00:13:29.951Z,14.07
2023-05-10T00:16:33.020Z,14.05
2023-05-10T00:19:35.349Z,14.01
2023-05-10T00:22:38.290Z,13.99
2023-05-10T00:25:40.918Z,13.97
2023-05-10T00:28:43.837Z,13.97
2023-05-10T00:31:46.348Z,13.89
2023-05-10T00:34:49.241Z,13.85
2023-05-10T00:37:51.530Z,13.83
2023-05-10T00:40:54.670Z,13.79
2023-05-10T00:43:57.448Z,13.77
2023-05-10T00:47:00.389Z,13.76
2023-05-10T00:50:03.074Z,13.70
2023-05-10T00:53:06.029Z,13.65
2023-05-10T00:56:08.324Z,13.62
2023-05-10T00:59:11.505Z,13.58
2023-05-10T01:02:14.319Z,13.58
2023-05-10T01:05:17.620Z,13.55
2023-05-10T01:08:20.666Z,13.53
2023-05-10T01:11:23.766Z,13.48
2023-05-10T01:14:26.904Z,13.43
2023-05-10T01:17:30.211Z,13.42
2023-05-10T01:20:37.150Z,13.41
2023-05-10T01:23:40.076Z,13.40
2023-05-10T01:26:45.559Z,13.38
2023-05-10T01:29:50.025Z,13.37
2023-05-10T01:33:00.763Z,13.37
2023-05-10T01:36:07.976Z,13.34
2023-05-10T01:39:20.194Z,13.33
2023-05-10T01:42:26.814Z,13.33
2023-05-10T01:45:34.993Z,13.31
2023-05-10T01:48:41.486Z,13.30
2023-05-10T01:51:47.532Z,13.29
2023-05-10T01:54:54.369Z,13.28
2023-05-10T01:58:05.182Z,13.30
2023-05-10T02:01:09.408Z,13.27
2023-05-10T02:04:15.077Z,13.27
2023-05-10T02:07:18.403Z,13.28
2023-05-10T02:10:21.779Z,13.29
2023-05-10T02:13:25.781Z,13.31
2023-05-10T02:16:29.102Z,13.36
2023-05-10T02:19:33.495Z,13.33
2023-05-10T02:22:36.821Z,13.34
2023-05-10T02:25:40.271Z,13.36
2023-05-10T02:28:43.351Z,13.36
2023-05-10T02:31:46.884Z,13.36
2023-05-10T02:34:52.908Z,13.34
2023-05-10T02:37:57.507Z,13.35
2023-05-10T02:41:00.401Z,13.39
2023-05-10T02:44:03.970Z,13.39
2023-05-10T02:47:06.418Z,13.39
2023-05-10T02:50:09.578Z,13.39
2023-05-10T02:53:14.706Z,13.38
2023-05-10T02:56:24.766Z,13.39
2023-05-10T02:59:27.453Z,13.41
2023-05-10T03:02:31.963Z,13.42
2023-05-10T03:05:35.178Z,13.39
2023-05-10T03:08:38.730Z,13.34
2023-05-10T03:11:48.101Z,13.34
2023-05-10T03:14:59.867Z,13.32
2023-05-10T03:18:06.655Z,13.30
2023-05-10T03:21:13.389Z,13.28
2023-05-10T03:24:17.713Z,13.24
2023-05-10T03:27:22.444Z,13.22
2023-05-10T03:30:25.456Z,13.13
2023-05-10T03:33:28.414Z,13.13
2023-05-10T03:36:30.715Z,13.12
2023-05-10T03:39:34.590Z,13.11
2023-05-10T03:42:37.451Z,13.08
2023-05-10T03:45:40.783Z,13.07
2023-05-10T03:48:43.702Z,13.11
2023-05-10T03:51:46.696Z,13.11
2023-05-10T03:54:49.106Z,13.12
2023-05-10T03:57:52.205Z,13.15
2023-05-10T04:00:54.608Z,13.11
2023-05-10T04:03:57.562Z,13.11
2023-05-10T04:06:59.942Z,13.14
2023-05-10T04:10:02.922Z,13.19
2023-05-10T04:13:05.259Z,13.21
2023-05-10T04:16:08.348Z,13.27
2023-05-10T04:19:10.652Z,13.24
2023-05-10T04:22:13.738Z,13.22
2023-05-10T04:25:16.423Z,13.25
2023-05-10T04:28:19.527Z,13.23
2023-05-10T04:31:22.723Z,13.25
2023-05-10T04:34:26.502Z,13.15
2023-05-10T04:37:28.835Z,13.12
2023-05-10T04:40:31.769Z,13.12
2023-05-10T04:43:34.226Z,13.12
2023-05-10T04:46:37.364Z,13.13
2023-05-10T04:49:39.761Z,13.12
2023-05-10T04:52:42.709Z,13.15
2023-05-10T04:55:44.998Z,13.18
2023-05-10T04:58:47.869Z,13.23
2023-05-10T05:01:50.310Z,13.32
2023-05-10T05:04:53.225Z,13.34
2023-05-10T05:07:55.630Z,13.39
2023-05-10T05:10:58.622Z,13.42
2023-05-10T05:14:01.021Z,13.50
2023-05-10T05:17:04.905Z,13.41
2023-05-10T05:20:07.620Z,13.46
2023-05-10T05:23:10.544Z,13.41
2023-05-10T05:26:13.008Z,13.47
2023-05-10T05:29:16.054Z,13.52
2023-05-10T05:32:18.631Z,13.60
2023-05-10T05:35:21.799Z,13.72
2023-05-10T05:38:24.665Z,13.75
2023-05-10T05:41:27.571Z,13.78
2023-05-10T05:44:29.990Z,13.85
2023-05-10T05:47:35.242Z,13.91
2023-05-10T05:50:37.600Z,13.96
2023-05-10T05:53:40.437Z,14.00
2023-05-10T05:56:42.774Z,14.06
2023-05-10T05:59:45.861Z,14.13
2023-05-10T06:02:49.029Z,14.21
2023-05-10T06:05:52.051Z,14.23
2023-05-10T06:08:54.437Z,14.30
2023-05-10T06:11:57.536Z,14.32
2023-05-10T06:14:59.875Z,14.39
2023-05-10T06:18:03.063Z,14.42
2023-05-10T06:21:05.468Z,14.57
2023-05-10T06:24:08.501Z,14.63
2023-05-10T06:27:10.803Z,14.81
2023-05-10T06:30:15.722Z,14.97
2023-05-10T06:33:18.040Z,15.25
2023-05-10T06:36:21.680Z,15.30
2023-05-10T06:39:24.103Z,15.32
2023-05-10T06:42:28.066Z,15.32
2023-05-10T06:45:30.545Z,15.53
2023-05-10T06:48:33.637Z,15.70
2023-05-10T06:51:35.988Z,15.89
2023-05-10T06:54:41.483Z,16.02
2023-05-10T06:57:44.003Z,16.12
2023-05-10T07:00:48.054Z,16.25
2023-05-10T07:03:50.491Z,16.41
2023-05-10T07:06:54.140Z,16.59
2023-05-10T07:09:57.663Z,16.87
2023-05-10T07:13:01.441Z,16.96
2023-05-10T07:16:04.112Z,16.96
2023-05-10T07:19:07.028Z,17.08
2023-05-10T07:22:09.628Z,17.26
2023-05-10T07:25:12.973Z,17.54
2023-05-10T07:28:16.012Z,17.88
2023-05-10T07:31:18.972Z,17.89
2023-05-10T07:34:21.429Z,17.59
2023-05-10T07:37:24.420Z,17.39
2023-05-10T07:40:26.838Z,17.53
2023-05-10T07:43:29.681Z,17.91
2023-05-10T07:46:32.030Z,18.10
2023-05-10T07:49:35.000Z,18.29
2023-05-10T07:52:37.325Z,18.53
2023-05-10T07:55:40.202Z,18.64
2023-05-10T07:58:42.501Z,19.21
2023-05-10T08:01:45.625Z,19.12
2023-05-10T08:04:48.319Z,19.12
2023-05-10T08:07:51.079Z,19.22
2023-05-10T08:10:53.710Z,19.11
2023-05-10T08:13:56.309Z,18.85
2023-05-10T08:16:59.283Z,18.90
2023-05-10T08:20:02.231Z,19.10
2023-05-10T08:23:07.165Z,19.43
2023-05-10T08:26:09.733Z,20.14
2023-05-10T08:29:12.293Z,20.43
2023-05-10T08:32:15.276Z,20.40
2023-05-10T08:35:18.168Z,20.17
2023-05-10T08:38:20.881Z,20.62
2023-05-10T08:41:25.581Z,20.89
2023-05-10T08:44:28.703Z,20.52
2023-05-10T08:47:31.901Z,20.24
2023-05-10T08:50:38.814Z,19.89
2023-05-10T08:53:41.940Z,19.92
2023-05-10T08:56:44.574Z,19.72
2023-05-10T08:59:47.305Z,20.34
2023-05-10T09:02:50.607Z,21.39
2023-05-10T09:05:53.314Z,22.24
2023-05-10T09:08:56.075Z,22.30
2023-05-10T09:11:58.876Z,22.49
2023-05-10T09:15:01.664Z,23.51
2023-05-10T09:18:05.087Z,23.84
2023-05-10T09:21:07.857Z,24.43
2023-05-10T09:24:10.557Z,24.87
2023-05-10T09:27:13.178Z,25.49
2023-05-10T09:30:25.893Z,24.72
2023-05-10T09:33:28.856Z,24.31
2023-05-10T09:36:31.465Z,24.87
2023-05-10T09:39:34.881Z,24.88
2023-05-10T09:42:37.581Z,24.16
2023-05-10T09:45:42.122Z,23.27
2023-05-10T09:48:47.869Z,22.85
2023-05-10T09:52:09.020Z,22.48
2023-05-10T09:55:11.719Z,22.94
2023-05-10T09:58:15.062Z,23.94
2023-05-10T10:01:17.855Z,24.86
2023-05-10T10:04:21.483Z,25.08
2023-05-10T10:07:25.459Z,24.26
2023-05-10T10:10:29.041Z,23.91
2023-05-10T10:13:33.080Z,24.25
2023-05-10T10:16:36.130Z,23.63
2023-05-10T10:19:38.668Z,23.38
2023-05-10T10:22:41.698Z,24.14
2023-05-10T10:25:45.467Z,25.04
2023-05-10T10:29:08.183Z,25.26
2023-05-10T10:32:18.614Z,25.16
2023-05-10T10:35:22.407Z,24.98
2023-05-10T10:38:25.562Z,25.03
2023-05-10T10:41:44.008Z,25.60
2023-05-10T10:44:46.984Z,25.89
2023-05-10T10:47:50.991Z,25.53
2023-05-10T10:50:57.533Z,25.64
2023-05-10T10:54:09.597Z,26.49
2023-05-10T10:57:15.837Z,26.21
2023-05-10T11:00:24.749Z,25.93
2023-05-10T11:03:29.976Z,26.14
2023-05-10T11:06:34.572Z,26.05
2023-05-10T11:09:41.044Z,26.17
2023-05-10T11:13:04.191Z,25.40
2023-05-10T11:16:15.739Z,24.64
2023-05-10T11:19:19.031Z,24.10
2023-05-10T11:22:21.294Z,23.93
2023-05-10T11:25:27.743Z,23.53
2023-05-10T11:28:30.402Z,22.80
2023-05-10T11:31:33.912Z,22.25
2023-05-10T11:34:36.258Z,21.96
2023-05-10T11:37:44.695Z,21.65
2023-05-10T11:40:47.124Z,21.43
2023-05-10T11:43:51.026Z,21.32
2023-05-10T11:46:53.425Z,21.45
2023-05-10T11:49:56.525Z,22.12
2023-05-10T11:52:59.773Z,22.45
2023-05-10T11:56:05.922Z,22.23
2023-05-10T11:59:09.125Z,21.94
2023-05-10T12:02:12.513Z,21.63
2023-05-10T12:05:15.366Z,21.41
2023-05-10T12:08:21.879Z,21.20
2023-05-10T12:11:28.657Z,21.21
2023-05-10T12:14:34.891Z,21.24
2023-05-10T12:17:38.511Z,21.12
2023-05-10T12:20:41.422Z,21.20
2023-05-10T12:23:46.186Z,21.17
2023-05-10T12:26:55.537Z,21.07
2023-05-10T12:30:00.708Z,21.14
2023-05-10T12:33:13.279Z,21.32
2023-05-10T12:36:16.851Z,21.69
2023-05-10T12:39:19.511Z,21.61
2023-05-10T12:42:22.117Z,21.50
2023-05-10T12:45:24.925Z,21.36
2023-05-10T12:48:29.706Z,21.17
2023-05-10T12:51:32.458Z,21.15
2023-05-10T12:54:35.048Z,20.88
2023-05-10T12:57:37.676Z,20.87
2023-05-10T13:00:40.715Z,20.87
2023-05-10T13:03:44.288Z,20.82
2023-05-10T13:06:46.911Z,20.83
2023-05-10T13:09:49.483Z,21.04
2023-05-10T13:12:52.119Z,21.38
2023-05-10T13:15:54.848Z,21.78
2023-05-10T13:18:57.486Z,21.84
2023-05-10T13:22:00.246Z,22.05
2023-05-10T13:25:02.895Z,22.26
2023-05-10T13:28:05.676Z,22.49
2023-05-10T13:31:08.474Z,22.67
2023-05-10T13:34:11.086Z,22.74
2023-05-10T13:37:13.906Z,22.53
2023-05-10T13:40:16.845Z,22.25
2023-05-10T13:43:20.153Z,22.01
2023-05-10T13:46:23.075Z,21.84
2023-05-10T13:49:25.754Z,21.71
2023-05-10T13:52:28.384Z,21.66
2023-05-10T13:55:31.637Z,21.79
2023-05-10T13:58:34.224Z,21.67
2023-05-10T14:01:37.507Z,21.79
2023-05-10T14:04:40.549Z,21.63
2023-05-10T14:07:42.959Z,21.39
2023-05-10T14:10:45.950Z,21.25
2023-05-10T14:13:48.234Z,21.20
2023-05-10T14:16:51.266Z,21.04
2023-05-10T14:19:54.200Z,21.01
2023-05-10T14:22:57.062Z,20.78
2023-05-10T14:25:59.478Z,20.86
2023-05-10T14:29:02.406Z,20.93
2023-05-10T14:32:04.796Z,20.90
2023-05-10T14:35:09.000Z,20.73
2023-05-10T14:38:13.548Z,20.66
2023-05-10T14:41:18.486Z,20.52
2023-05-10T14:44:21.058Z,20.50
2023-05-10T14:47:24.108Z,20.52
2023-05-10T14:50:36.645Z,20.61
2023-05-10T14:53:40.216Z,20.57
2023-05-10T14:56:42.872Z,20.51
2023-05-10T14:59:45.977Z,20.50
2023-05-10T15:02:49.414Z,20.32
2023-05-10T15:05:54.071Z,20.29
2023-05-10T15:08:56.424Z,20.14
2023-05-10T15:11:59.305Z,20.06
2023-05-10T15:15:01.647Z,19.88
2023-05-10T15:18:05.600Z,19.89
2023-05-10T15:21:07.918Z,19.76
2023-05-10T15:24:10.795Z,19.65
2023-05-10T15:27:13.342Z,19.56
2023-05-10T15:30:16.208Z,19.52
2023-05-10T15:33:18.785Z,19.56
2023-05-10T15:36:21.869Z,19.47
2023-05-10T15:39:24.152Z,19.37
2023-05-10T15:42:26.998Z,19.45
2023-05-10T15:45:29.419Z,19.58
2023-05-10T15:48:32.562Z,19.66
2023-05-10T15:51:36.651Z,19.61
2023-05-10T15:54:39.981Z,19.47
2023-05-10T15:57:42.852Z,19.51
2023-05-10T16:00:45.930Z,19.48
2023-05-10T16:03:48.055Z,19.39
2023-05-10T16:06:51.172Z,19.29
2023-05-10T16:09:53.485Z,19.30
2023-05-10T16:12:56.689Z,19.29
2023-05-10T16:15:59.080Z,19.24
2023-05-10T16:19:03.843Z,19.25
2023-05-10T16:22:07.008Z,19.28
2023-05-10T16:25:14.100Z,19.37
2023-05-10T16:28:16.585Z,19.33
2023-05-10T16:31:20.151Z,19.22
2023-05-10T16:34:24.420Z,19.15
2023-05-10T16:37:28.323Z,19.13
2023-05-10T16:40:31.030Z,19.09
2023-05-10T16:43:33.935Z,19.14
2023-05-10T16:46:36.660Z,19.05
2023-05-10T16:49:39.534Z,18.96
2023-05-10T16:52:41.928Z,18.88
2023-05-10T16:55:44.932Z,18.83
2023-05-10T16:58:49.881Z,18.78
2023-05-10T17:01:53.514Z,18.74
2023-05-10T17:04:56.253Z,18.68
2023-05-10T17:07:59.432Z,18.68
2023-05-10T17:11:02.947Z,18.57
2023-05-10T17:14:06.083Z,18.51
2023-05-10T17:17:12.096Z,18.41
2023-05-10T17:20:17.448Z,18.30
2023-05-10T17:23:19.829Z,18.26
2023-05-10T17:26:22.895Z,18.16
2023-05-10T17:29:25.453Z,18.19
2023-05-10T17:32:28.433Z,18.07
2023-05-10T17:35:31.524Z,18.00
2023-05-10T17:38:34.493Z,17.96
2023-05-10T17:41:36.876Z,17.90
2023-05-10T17:44:39.728Z,17.86
2023-05-10T17:47:42.311Z,17.91
2023-05-10T17:50:45.291Z,17.91
2023-05-10T17:53:47.772Z,17.80
2023-05-10T17:56:50.790Z,17.82
2023-05-10T17:59:53.326Z,17.75
2023-05-10T18:02:56.309Z,17.64
2023-05-10T18:05:59.222Z,17.56
2023-05-10T18:09:01.861Z,17.52
2023-05-10T18:12:04.607Z,17.49
2023-05-10T18:15:07.534Z,17.45
2023-05-10T18:18:11.091Z,17.39
2023-05-10T18:21:13.869Z,17.35
2023-05-10T18:24:17.011Z,17.48
2023-05-10T18:27:26.010Z,17.34
2023-05-10T18:30:28.651Z,17.27
2023-05-10T18:33:31.657Z,17.21
2023-05-10T18:36:34.518Z,17.17
2023-05-10T18:39:37.631Z,17.14
2023-05-10T18:42:41.652Z,17.11
2023-05-10T18:45:44.310Z,17.10
2023-05-10T18:48:47.151Z,17.04
2023-05-10T18:51:49.759Z,17.01
2023-05-10T18:54:52.756Z,16.97
2023-05-10T18:57:55.404Z,16.96
2023-05-10T19:00:58.833Z,16.93
2023-05-10T19:04:01.475Z,16.95
2023-05-10T19:07:04.152Z,16.91
2023-05-10T19:10:06.971Z,16.89
2023-05-10T19:13:09.756Z,16.87
2023-05-10T19:16:14.304Z,16.95
2023-05-10T19:19:17.206Z,16.84
2023-05-10T19:22:28.249Z,16.81
2023-05-10T19:25:39.425Z,16.78
2023-05-10T19:28:42.161Z,16.72
2023-05-10T19:31:46.204Z,16.71
2023-05-10T19:34:48.981Z,16.71
2023-05-10T19:37:52.172Z,16.72
2023-05-10T19:40:58.390Z,16.70
2023-05-10T19:44:01.190Z,16.48
2023-05-10T19:47:05.301Z,15.54
2023-05-10T19:50:08.171Z,14.96
2023-05-10T19:53:11.040Z,14.60
2023-05-10T19:56:14.333Z,14.33
2023-05-10T19:59:16.911Z,14.16
2023-05-10T20:02:19.779Z,14.08
2023-05-10T20:05:22.981Z,13.97
2023-05-10T20:08:25.432Z,13.98
2023-05-10T20:11:28.404Z,14.00
2023-05-10T20:14:30.794Z,14.00
2023-05-10T20:17:33.878Z,14.07
2023-05-10T20:20:36.254Z,14.08
2023-05-10T20:23:39.375Z,14.15
2023-05-10T20:26:41.860Z,14.21
2023-05-10T20:29:44.916Z,14.34
2023-05-10T20:32:47.535Z,14.46
2023-05-10T20:35:51.352Z,14.57
2023-05-10T20:38:53.698Z,14.73
2023-05-10T20:41:56.613Z,14.73
2023-05-10T20:44:59.294Z,14.77
2023-05-10T20:48:02.204Z,14.79
2023-05-10T20:51:04.532Z,14.85
2023-05-10T20:54:07.384Z,14.95
2023-05-10T20:57:12.649Z,15.04
2023-05-10T21:00:15.869Z,14.99
2023-05-10T21:03:18.606Z,15.00
2023-05-10T21:06:21.455Z,15.03
2023-05-10T21:09:23.879Z,15.04
2023-05-10T21:12:26.817Z,15.05
2023-05-10T21:15:29.289Z,15.10
2023-05-10T21:18:32.208Z,15.12
2023-05-10T21:21:34.955Z,15.13
2023-05-10T21:24:37.920Z,15.18
2023-05-10T21:27:40.286Z,15.45
2023-05-10T21:30:43.192Z,15.28
2023-05-10T21:33:45.862Z,15.24
2023-05-10T21:36:48.898Z,15.51
2023-05-10T21:39:52.828Z,15.44
2023-05-10T21:42:55.772Z,15.33
2023-05-10T21:45:58.580Z,15.40
2023-05-10T21:49:01.541Z,15.33
2023-05-10T21:52:03.956Z,15.51
2023-05-10T21:55:08.535Z,15.52
2023-05-10T21:58:11.095Z,15.38
2023-05-10T22:01:15.119Z,15.51
2023-05-10T22:04:17.833Z,15.42
2023-05-10T22:07:20.439Z,15.43
2023-05-10T22:10:23.106Z,15.46
2023-05-10T22:13:25.779Z,15.43
2023-05-10T22:16:29.262Z,15.46
2023-05-10T22:19:31.924Z,15.47
2023-05-10T22:22:34.651Z,15.51
2023-05-10T22:25:37.318Z,15.37
2023-05-10T22:28:39.980Z,15.33
2023-05-10T22:31:42.848Z,15.30
2023-05-10T22:34:45.460Z,15.27
2023-05-10T22:37:48.063Z,15.25
2023-05-10T22:40:50.698Z,15.25
2023-05-10T22:43:53.383Z,15.22
2023-05-10T22:46:56.087Z,15.20
2023-05-10T22:49:58.775Z,15.19
2023-05-10T22:53:01.451Z,15.16
2023-05-10T22:56:04.169Z,15.13
2023-05-10T22:59:06.854Z,15.11
2023-05-10T23:02:09.947Z,15.07
2023-05-10T23:05:13.176Z,15.06
2023-05-10T23:08:15.810Z,15.03
2023-05-10T23:11:18.416Z,14.99
2023-05-10T23:14:21.021Z,14.96
2023-05-10T23:17:23.634Z,14.92
2023-05-10T23:20:26.438Z,14.89
2023-05-10T23:23:29.193Z,14.88
2023-05-10T23:26:31.738Z,14.85
2023-05-10T23:29:34.805Z,14.82
2023-05-10T23:32:37.457Z,14.81
2023-05-10T23:35:40.081Z,14.78
2023-05-10T23:38:42.747Z,14.75
2023-05-10T23:41:45.395Z,14.72
2023-05-10T23:44:48.012Z,14.72
2023-05-10T23:47:50.677Z,14.68
2023-05-10T23:50:53.341Z,14.63
2023-05-10T23:53:56.017Z,14.63
2023-05-10T23:56:58.603Z,14.66
